Akinaitsat, Greenland
Current Conditions -  °F | °C
As of 11:50 AM on Sunday 21 Dec 2014 (Local Time) from BGKK Reporting Station
Snow Showers Snow Showers  
Wind Chill: 27°   Ceiling: 2500
Heat Index: 27°   Visibility: 6mi
Dew Point: 25°   Wind: 2mph
Humidity: 93%   Direction: 140°SE
Pressure: 29.18"   Gusts: NA
Location:  65.53°N, 37.17°W
Report Text: BGKK 211350Z 14002KT 9999 -SHSN FEW010 BKN025 BKN043 M03/M04 Q0988
Loading
Personal Weather Stations






























Interactive Weather Map New forecast layout! Learn more

10-Day Weather Forecast

Advertisements
Track Severe Weather on mobile